Time;durP1;ratioP1;P1;durP2;ratioP2;P2;SDS_P1;SDS_P2;PMS_P1;PMS_P2;Temp;Humidity;BMP_temperature;BMP_pressure;BME280_temperature;BME280_humidity;BME280_pressure;Samples;Min_cycle;Max_cycle;Signal;HPM_P1;HPM_P2
2021/12/22 00:01:25;;;;;;;26.70;14.00;;;-1.60;1.00;;;;;;4954085;29;20854;-51
2021/12/22 00:03:51;;;;;;;26.10;14.83;;;-1.50;1.00;;;;;;4936734;28;20193;-51
2021/12/22 00:06:22;;;;;;;31.77;15.33;;;-1.60;1.00;;;;;;4960929;28;20443;-51
2021/12/22 00:08:48;;;;;;;25.87;14.20;;;-1.60;1.00;;;;;;4973837;28;20902;-51
2021/12/22 00:11:14;;;;;;;33.10;15.07;;;-1.70;99.90;;;;;;4956552;28;20425;-51
2021/12/22 00:13:40;;;;;;;22.97;13.57;;;-1.80;99.90;;;;;;4954091;29;20448;-52
2021/12/22 00:16:06;;;;;;;29.20;15.67;;;-1.80;1.00;;;;;;4953576;29;20198;-51
2021/12/22 00:18:32;;;;;;;27.43;14.63;;;-1.90;1.00;;;;;;4954169;29;20441;-51
2021/12/22 00:20:58;;;;;;;24.03;14.07;;;-1.90;1.00;;;;;;4953441;29;20504;-50
2021/12/22 00:23:23;;;;;;;30.53;15.90;;;-1.90;47.40;;;;;;4953826;29;20433;-51
2021/12/22 00:25:49;;;;;;;27.43;13.60;;;-1.90;99.90;;;;;;4953776;29;20214;-51
2021/12/22 00:28:15;;;;;;;23.20;12.80;;;-1.80;1.00;;;;;;4953320;28;20193;-51
2021/12/22 00:30:41;;;;;;;30.10;14.57;;;-1.90;99.90;;;;;;4953770;28;20215;-50
2021/12/22 00:33:09;;;;;;;33.50;14.93;;;-1.80;25.00;;;;;;4953417;29;20190;-51
2021/12/22 00:35:41;;;;;;;24.23;13.47;;;-1.80;99.90;;;;;;4942399;29;20429;-50
2021/12/22 00:38:08;;;;;;;23.00;13.23;;;-1.80;1.00;;;;;;4954199;29;20409;-51
2021/12/22 00:40:34;;;;;;;28.90;14.73;;;-1.80;1.00;;;;;;4953525;29;20483;-51
2021/12/22 00:43:00;;;;;;;26.80;13.80;;;-1.80;99.90;;;;;;4953382;29;20488;-51
2021/12/22 00:45:28;;;;;;;26.77;15.00;;;-1.90;1.00;;;;;;4953031;29;20441;-52
2021/12/22 00:47:55;;;;;;;24.80;13.07;;;-2.00;1.00;;;;;;4954216;29;20444;-51
2021/12/22 00:50:22;;;;;;;29.63;13.63;;;-2.10;99.90;;;;;;4952942;29;21022;-51
2021/12/22 00:52:48;;;;;;;28.70;13.90;;;-2.10;99.90;;;;;;4953702;28;20783;-51
2021/12/22 00:55:17;;;;;;;26.37;14.30;;;-2.20;99.90;;;;;;4953153;29;20441;-51
2021/12/22 00:57:43;;;;;;;40.67;14.40;;;-2.20;1.00;;;;;;4953442;29;20488;-51
2021/12/22 01:00:09;;;;;;;30.10;14.80;;;-2.20;1.00;;;;;;4952968;29;20904;-51
2021/12/22 01:02:35;;;;;;;26.17;13.83;;;-2.30;99.90;;;;;;4953201;29;20217;-51
2021/12/22 01:05:01;;;;;;;27.30;14.73;;;-2.30;1.00;;;;;;4953680;28;20420;-51
2021/12/22 01:07:26;;;;;;;28.50;13.87;;;-2.30;99.90;;;;;;4953309;29;21002;-49
2021/12/22 01:09:52;;;;;;;25.73;13.67;;;-2.30;99.90;;;;;;4952930;29;20536;-51
2021/12/22 01:12:19;;;;;;;25.87;13.57;;;-2.40;1.00;;;;;;4953135;29;20206;-51
2021/12/22 01:14:45;;;;;;;28.67;13.80;;;-2.40;1.00;;;;;;4952780;29;20198;-51
2021/12/22 01:17:13;;;;;;;34.63;14.80;;;-2.40;1.00;;;;;;4952687;29;20516;-50
2021/12/22 01:19:57;;;;;;;29.43;14.47;;;-2.40;1.00;;;;;;4952878;29;20908;-50
2021/12/22 01:25:09;;;;;;;30.43;14.40;;;-2.30;1.00;;;;;;4952637;29;20433;-51
2021/12/22 01:27:39;;;;;;;27.47;14.07;;;-2.40;1.00;;;;;;4952717;29;20433;-51
2021/12/22 01:30:19;;;;;;;24.87;13.50;;;-2.40;99.90;;;;;;4952607;29;20434;-51
2021/12/22 01:32:45;;;;;;;32.13;13.57;;;-2.40;1.00;;;;;;4953157;29;20515;-51
2021/12/22 01:35:13;;;;;;;28.77;13.20;;;-2.40;99.90;;;;;;4952487;28;20476;-50
2021/12/22 01:37:39;;;;;;;27.37;13.03;;;-2.50;66.90;;;;;;4935550;29;20514;-51
2021/12/22 01:40:05;;;;;;;26.30;12.93;;;-2.60;99.90;;;;;;4951498;29;20477;-51
2021/12/22 01:42:31;;;;;;;28.53;12.27;;;-2.60;1.00;;;;;;4952850;29;20221;-51
2021/12/22 01:50:46;;;;;;;23.77;12.40;;;-2.50;99.90;;;;;;4951744;29;20508;-50
2021/12/22 01:53:21;;;;;;;24.03;11.83;;;-2.60;99.90;;;;;;4952704;29;20476;-52
2021/12/22 01:56:05;;;;;;;30.73;11.90;;;-2.70;99.90;;;;;;4952544;29;20448;-51
2021/12/22 01:58:36;;;;;;;29.27;11.50;;;-2.70;99.90;;;;;;4937670;29;20455;-51
2021/12/22 02:01:04;;;;;;;20.80;11.80;;;-2.80;1.00;;;;;;4952413;29;20556;-51
2021/12/22 02:03:29;;;;;;;26.80;10.83;;;-2.70;1.00;;;;;;4952519;29;20432;-51
2021/12/22 02:05:55;;;;;;;27.77;12.10;;;-2.70;1.00;;;;;;4952699;29;20824;-50
2021/12/22 02:08:21;;;;;;;22.53;11.40;;;-2.70;99.90;;;;;;4952791;29;20213;-51
2021/12/22 02:10:47;;;;;;;24.03;11.90;;;-2.70;99.90;;;;;;4952502;29;20721;-51
2021/12/22 02:13:16;;;;;;;23.30;11.20;;;-2.70;99.90;;;;;;4952136;29;20237;-51
2021/12/22 02:15:43;;;;;;;21.10;11.17;;;-2.70;99.90;;;;;;4939471;29;20452;-51
2021/12/22 02:18:15;;;;;;;25.40;11.93;;;-2.80;99.90;;;;;;4952575;29;21094;-51
2021/12/22 02:20:41;;;;;;;24.27;11.90;;;-2.70;99.90;;;;;;4952186;29;20504;-51
2021/12/22 02:23:06;;;;;;;26.73;13.30;;;-2.70;24.30;;;;;;4952539;29;20440;-51
2021/12/22 02:25:39;;;;;;;23.30;11.47;;;-2.70;1.00;;;;;;4952153;29;20656;-51
2021/12/22 02:28:09;;;;;;;23.50;11.43;;;-2.60;1.00;;;;;;4952157;29;20193;-51
2021/12/22 02:30:35;;;;;;;24.50;12.53;;;-2.60;1.00;;;;;;4951551;29;20436;-50
2021/12/22 02:35:54;;;;;;;26.53;12.77;;;-2.60;1.00;;;;;;4952060;29;20394;-51
2021/12/22 02:38:19;;;;;;;27.97;13.23;;;-2.70;1.00;;;;;;4952176;29;20425;-51
2021/12/22 02:40:49;;;;;;;27.10;13.40;;;-2.80;1.00;;;;;;4951723;29;20437;-50
2021/12/22 02:43:20;;;;;;;27.27;14.27;;;-2.80;1.00;;;;;;4951754;29;20285;-50
2021/12/22 02:45:46;;;;;;;28.13;13.80;;;-2.80;1.00;;;;;;4952164;29;20879;-51
2021/12/22 02:48:12;;;;;;;32.00;13.10;;;-2.90;1.00;;;;;;4951711;29;20472;-51
2021/12/22 02:50:38;;;;;;;25.67;13.80;;;-2.90;83.80;;;;;;4952531;28;20512;-51
2021/12/22 02:53:13;;;;;;;28.70;13.40;;;-3.00;41.70;;;;;;4955152;28;20277;-51
2021/12/22 02:55:57;;;;;;;26.20;13.50;;;-3.10;99.90;;;;;;4955755;29;20196;-51
2021/12/22 03:01:02;;;;;;;36.17;15.53;;;-3.10;1.00;;;;;;4955147;29;21050;-51
2021/12/22 03:03:47;;;;;;;35.10;15.40;;;-3.20;1.00;;;;;;4955509;29;20209;-50
2021/12/22 03:06:18;;;;;;;29.97;16.27;;;-3.20;99.90;;;;;;4955490;29;20854;-51
2021/12/22 03:08:44;;;;;;;26.63;14.17;;;-3.20;99.90;;;;;;4955134;28;20441;-51
2021/12/22 03:11:09;;;;;;;30.97;15.93;;;-3.10;1.00;;;;;;4955198;29;20508;-50
2021/12/22 03:13:35;;;;;;;31.33;16.23;;;-3.10;99.90;;;;;;4955168;29;20743;-50
2021/12/22 03:16:00;;;;;;;30.90;16.00;;;-3.10;1.00;;;;;;4954237;29;20202;-51
2021/12/22 03:18:26;;;;;;;29.73;14.67;;;-3.00;1.00;;;;;;4955163;29;20205;-51
2021/12/22 03:21:00;;;;;;;32.33;16.70;;;-3.10;1.00;;;;;;4954659;29;20801;-50
2021/12/22 03:23:26;;;;;;;32.57;16.70;;;-3.20;99.90;;;;;;4954945;29;20197;-51
2021/12/22 03:25:53;;;;;;;30.70;17.20;;;-3.20;1.00;;;;;;4954719;29;20437;-51
2021/12/22 03:28:18;;;;;;;39.23;16.03;;;-3.20;1.00;;;;;;4954785;28;20194;-51
2021/12/22 03:30:44;;;;;;;35.30;17.67;;;-3.30;1.00;;;;;;4954619;29;20584;-51
2021/12/22 03:33:09;;;;;;;38.87;17.53;;;-3.30;99.90;;;;;;4954701;29;20813;-51
2021/12/22 03:35:38;;;;;;;31.67;16.60;;;-3.30;1.00;;;;;;4954933;29;20306;-50
2021/12/22 03:38:03;;;;;;;40.83;17.60;;;-3.20;33.90;;;;;;4954552;29;20201;-51
2021/12/22 03:40:29;;;;;;;54.03;19.00;;;-3.20;99.90;;;;;;4954316;29;20429;-50
2021/12/22 03:42:55;;;;;;;40.70;17.57;;;-3.10;1.00;;;;;;4954437;29;20193;-50
2021/12/22 03:45:20;;;;;;;37.60;17.40;;;-3.10;99.90;;;;;;4954936;29;20194;-50
2021/12/22 03:47:47;;;;;;;34.43;15.47;;;-3.20;99.90;;;;;;4954196;29;20196;-51
2021/12/22 03:50:17;;;;;;;25.13;13.53;;;-3.20;72.40;;;;;;4954988;29;20237;-50
2021/12/22 03:52:43;;;;;;;38.40;16.03;;;-3.20;99.90;;;;;;4953986;29;20433;-51
2021/12/22 03:55:09;;;;;;;36.83;16.60;;;-3.20;99.90;;;;;;4953924;29;20437;-50
2021/12/22 03:57:35;;;;;;;33.50;16.00;;;-3.20;99.90;;;;;;4953607;29;20526;-51
2021/12/22 04:00:03;;;;;;;30.10;14.37;;;-3.20;99.90;;;;;;4954489;29;20562;-51
2021/12/22 04:02:29;;;;;;;25.90;14.10;;;-3.20;99.90;;;;;;4953277;28;20574;-50
2021/12/22 04:04:55;;;;;;;31.23;14.60;;;-3.20;1.00;;;;;;4954329;28;20433;-51
2021/12/22 04:07:21;;;;;;;26.03;14.53;;;-3.20;99.90;;;;;;4954025;29;20425;-51
2021/12/22 04:09:46;;;;;;;26.60;14.23;;;-3.30;99.90;;;;;;4953920;29;20197;-51
2021/12/22 04:12:12;;;;;;;27.20;13.47;;;-3.30;1.00;;;;;;4953999;29;20216;-51
2021/12/22 04:14:38;;;;;;;24.27;12.80;;;-3.30;99.90;;;;;;4953945;29;20519;-51
2021/12/22 04:17:03;;;;;;;23.53;13.00;;;-3.40;1.00;;;;;;4953347;29;20808;-50
2021/12/22 04:19:29;;;;;;;26.33;13.10;;;-3.20;21.90;;;;;;4953826;29;20224;-50
2021/12/22 04:21:55;;;;;;;25.13;12.03;;;-3.20;99.90;;;;;;4953454;29;20714;-51
2021/12/22 04:24:22;;;;;;;27.50;12.60;;;-3.30;1.00;;;;;;4953356;29;20189;-50
2021/12/22 04:26:48;;;;;;;26.37;13.07;;;-3.40;1.00;;;;;;4953758;29;20959;-50
2021/12/22 04:29:13;;;;;;;21.80;12.47;;;-3.40;1.00;;;;;;4953536;28;20425;-51
2021/12/22 04:31:39;;;;;;;29.70;13.53;;;-3.50;99.90;;;;;;4953633;29;20433;-50
2021/12/22 04:34:08;;;;;;;31.17;12.80;;;-3.60;1.00;;;;;;4953715;29;20788;-51
2021/12/22 04:36:38;;;;;;;23.33;11.77;;;-3.60;1.00;;;;;;4953558;29;20221;-51
2021/12/22 04:39:05;;;;;;;26.73;12.50;;;-3.70;1.00;;;;;;4952995;29;20444;-51
2021/12/22 04:41:31;;;;;;;29.10;13.70;;;-3.60;99.90;;;;;;4948956;29;20834;-51
2021/12/22 04:43:57;;;;;;;27.20;12.90;;;-3.70;99.90;;;;;;4953148;29;20450;-51
2021/12/22 04:46:22;;;;;;;26.60;13.10;;;-3.70;1.00;;;;;;4953357;29;20252;-50
2021/12/22 04:48:49;;;;;;;23.97;12.77;;;-3.70;99.90;;;;;;4953228;29;20201;-51
2021/12/22 04:51:24;;;;;;;25.70;12.47;;;-3.80;99.90;;;;;;4952942;29;20249;-51
2021/12/22 04:54:02;;;;;;;30.13;12.43;;;-3.80;99.90;;;;;;4952258;29;20762;-51
2021/12/22 04:56:28;;;;;;;25.43;12.10;;;-3.80;99.90;;;;;;4952762;29;20421;-51
2021/12/22 04:58:54;;;;;;;27.10;11.97;;;-3.80;1.00;;;;;;4952033;29;20772;-50
2021/12/22 05:01:19;;;;;;;29.73;12.23;;;-3.80;1.00;;;;;;4934562;29;20257;-51
2021/12/22 05:03:45;;;;;;;34.83;12.83;;;-3.80;99.90;;;;;;4952492;29;20281;-50
2021/12/22 05:06:10;;;;;;;29.20;13.33;;;-3.70;99.90;;;;;;4952246;28;20198;-50
2021/12/22 05:08:36;;;;;;;26.27;12.37;;;-3.80;1.00;;;;;;4952395;29;20189;-51
2021/12/22 05:11:02;;;;;;;27.87;12.43;;;-3.90;1.00;;;;;;4952394;29;20202;-50
2021/12/22 05:13:29;;;;;;;28.70;12.40;;;-3.80;1.00;;;;;;4952047;28;20284;-50
2021/12/22 05:15:55;;;;;;;28.97;11.93;;;-3.80;99.90;;;;;;4951936;29;20521;-50
2021/12/22 05:18:23;;;;;;;30.10;13.47;;;-3.80;1.00;;;;;;4952264;29;20425;-51
2021/12/22 05:20:49;;;;;;;27.97;12.73;;;-3.70;1.00;;;;;;4948417;29;20193;-51
2021/12/22 05:23:16;;;;;;;24.83;12.03;;;-3.80;1.00;;;;;;4952064;28;20810;-51
2021/12/22 05:25:42;;;;;;;35.40;13.80;;;-4.00;99.90;;;;;;4951760;29;20528;-50
2021/12/22 05:28:07;;;;;;;35.80;13.53;;;-4.10;1.00;;;;;;4952399;29;20508;-51
2021/12/22 05:30:33;;;;;;;26.57;12.93;;;-4.00;1.00;;;;;;4951526;29;20204;-50
2021/12/22 05:32:58;;;;;;;24.73;12.37;;;-4.10;1.00;;;;;;4952367;29;20202;-51
2021/12/22 05:35:24;;;;;;;26.07;11.60;;;-4.00;94.20;;;;;;4951374;29;20201;-50
2021/12/22 05:37:50;;;;;;;26.57;12.37;;;-4.10;25.70;;;;;;4952431;29;20527;-51
2021/12/22 05:40:15;;;;;;;29.13;13.80;;;-4.20;89.30;;;;;;4951396;29;20205;-50
2021/12/22 05:42:42;;;;;;;36.63;12.80;;;-4.20;99.90;;;;;;4952043;28;20217;-51
2021/12/22 05:45:08;;;;;;;26.63;11.97;;;-4.10;1.00;;;;;;4951196;29;20358;-51
2021/12/22 05:47:34;;;;;;;27.30;12.00;;;-4.10;1.00;;;;;;4951625;29;20918;-51
2021/12/22 05:50:03;;;;;;;26.97;11.90;;;-4.20;99.90;;;;;;4916272;29;1029684;-50
2021/12/22 05:52:28;;;;;;;31.53;12.60;;;-4.20;1.00;;;;;;4952831;29;20202;-51
2021/12/22 05:54:54;;;;;;;35.17;12.80;;;-4.20;1.00;;;;;;4952033;29;20440;-50
2021/12/22 05:57:19;;;;;;;23.27;11.50;;;-4.10;1.00;;;;;;4952688;29;20202;-51
2021/12/22 05:59:45;;;;;;;26.40;12.97;;;-4.20;1.00;;;;;;4952282;29;20715;-51
2021/12/22 06:02:11;;;;;;;28.83;12.27;;;-4.10;1.00;;;;;;4952139;29;20221;-50
2021/12/22 06:04:36;;;;;;;26.70;12.43;;;-4.20;99.90;;;;;;4952634;29;20185;-50
2021/12/22 06:07:02;;;;;;;32.83;13.20;;;-4.30;99.90;;;;;;4934935;29;20186;-51
2021/12/22 06:09:28;;;;;;;28.83;13.10;;;-4.30;1.00;;;;;;4952524;29;20671;-51
2021/12/22 06:11:54;;;;;;;28.03;12.73;;;-4.40;99.90;;;;;;4952075;29;20281;-51
2021/12/22 06:14:19;;;;;;;29.33;12.93;;;-4.40;1.00;;;;;;4952372;29;20512;-50
2021/12/22 06:16:45;;;;;;;27.03;11.80;;;-4.40;1.00;;;;;;4952056;29;20216;-50
2021/12/22 06:19:12;;;;;;;28.50;13.20;;;-4.40;1.60;;;;;;4952520;29;20641;-50
2021/12/22 06:21:38;;;;;;;28.27;12.50;;;-4.50;99.90;;;;;;4952147;29;20221;-51
2021/12/22 06:24:04;;;;;;;27.40;11.70;;;-4.40;99.90;;;;;;4952297;28;20425;-51
2021/12/22 06:26:30;;;;;;;31.37;12.30;;;-4.40;99.90;;;;;;4954414;28;20528;-50
2021/12/22 06:28:56;;;;;;;30.97;11.70;;;-4.40;99.90;;;;;;4954966;29;20974;-51
2021/12/22 06:31:21;;;;;;;27.00;11.90;;;-4.50;1.00;;;;;;4955447;29;20249;-50
2021/12/22 06:33:47;;;;;;;28.63;12.33;;;-4.50;99.90;;;;;;4955821;29;20233;-51
2021/12/22 06:36:12;;;;;;;31.47;12.27;;;-4.50;99.90;;;;;;4955914;29;20221;-50
2021/12/22 06:38:39;;;;;;;27.97;12.93;;;-4.50;1.00;;;;;;4955216;29;20209;-51
2021/12/22 06:41:06;;;;;;;28.07;12.57;;;-4.40;1.00;;;;;;4955747;29;20206;-51
2021/12/22 06:43:31;;;;;;;27.67;12.07;;;-4.40;99.90;;;;;;4955795;29;21009;-51
2021/12/22 06:45:57;;;;;;;30.90;13.10;;;-4.30;1.00;;;;;;4955935;28;20520;-50
2021/12/22 06:48:23;;;;;;;48.03;15.07;;;-4.30;1.00;;;;;;4955143;29;20198;-50
2021/12/22 06:50:49;;;;;;;35.77;13.57;;;-4.30;99.90;;;;;;4955873;29;20249;-51
2021/12/22 06:53:14;;;;;;;28.30;12.57;;;-4.40;99.90;;;;;;4954669;29;20637;-50
2021/12/22 06:55:40;;;;;;;34.20;13.53;;;-4.50;99.90;;;;;;4955216;29;20201;-50
2021/12/22 06:58:05;;;;;;;30.53;13.50;;;-4.50;99.90;;;;;;4954627;29;20201;-51
2021/12/22 07:00:31;;;;;;;34.10;13.60;;;-4.50;99.90;;;;;;4955223;29;20193;-50
2021/12/22 07:02:58;;;;;;;29.90;13.20;;;-4.50;1.00;;;;;;4953139;29;20277;-50
2021/12/22 07:05:24;;;;;;;28.67;12.43;;;-4.60;1.00;;;;;;4954847;29;21092;-50
2021/12/22 07:07:50;;;;;;;32.60;11.80;;;-4.60;99.90;;;;;;4936228;29;20445;-51
2021/12/22 07:10:16;;;;;;;38.30;12.83;;;-4.60;99.90;;;;;;4953603;29;20418;-50
2021/12/22 07:12:45;;;;;;;30.87;12.30;;;-4.60;99.90;;;;;;4954359;29;20225;-50
2021/12/22 07:15:13;;;;;;;32.23;13.30;;;-4.60;1.00;;;;;;4954924;29;20441;-51
2021/12/22 07:17:41;;;;;;;37.83;13.50;;;-4.60;99.90;;;;;;4936723;29;20445;-55
2021/12/22 07:20:07;;;;;;;30.90;12.83;;;-4.70;99.90;;;;;;4953378;28;20430;-50
2021/12/22 07:22:34;;;;;;;31.87;12.27;;;-4.70;1.00;;;;;;4954106;29;20464;-50
2021/12/22 07:24:59;;;;;;;34.40;12.80;;;-4.70;1.00;;;;;;4954674;28;20437;-50
2021/12/22 07:27:25;;;;;;;36.67;14.33;;;-4.70;27.60;;;;;;4954736;29;20429;-50
2021/12/22 07:29:50;;;;;;;37.50;12.53;;;-4.60;1.00;;;;;;4937124;29;20248;-50
2021/12/22 07:32:16;;;;;;;44.70;14.60;;;-4.60;1.00;;;;;;4954461;29;20197;-50
2021/12/22 07:34:47;;;;;;;32.40;12.20;;;-4.60;99.90;;;;;;4954721;29;20212;-50
2021/12/22 07:37:22;;;;;;;31.60;11.63;;;-4.60;99.90;;;;;;4954053;28;20242;-50
2021/12/22 07:39:47;;;;;;;35.97;13.47;;;-4.70;96.10;;;;;;4954206;28;20495;-50
2021/12/22 07:42:13;;;;;;;30.67;12.17;;;-4.70;99.90;;;;;;4953960;29;20477;-51
2021/12/22 07:44:39;;;;;;;43.83;13.23;;;-4.70;99.90;;;;;;4953041;29;20200;-51
2021/12/22 07:47:05;;;;;;;27.93;11.40;;;-4.60;40.30;;;;;;4953419;29;20273;-50
2021/12/22 07:49:30;;;;;;;39.50;12.70;;;-4.60;1.00;;;;;;4952970;29;20876;-54
2021/12/22 07:51:56;;;;;;;31.60;13.20;;;-4.60;1.00;;;;;;4952384;29;20233;-50
2021/12/22 07:54:21;;;;;;;33.60;11.70;;;-4.60;18.50;;;;;;4950125;29;20667;-50
2021/12/22 07:56:47;;;;;;;31.10;11.43;;;-4.60;1.00;;;;;;4933167;29;20190;-49
2021/12/22 07:59:12;;;;;;;34.97;14.37;;;-4.60;99.90;;;;;;4949791;29;20198;-50
2021/12/22 08:01:38;;;;;;;28.53;11.63;;;-4.60;1.00;;;;;;4951714;29;20221;-50
2021/12/22 08:04:03;;;;;;;33.20;12.90;;;-4.60;1.00;;;;;;4950935;29;20916;-50
2021/12/22 08:06:29;;;;;;;33.30;13.43;;;-4.60;1.00;;;;;;4954400;29;20202;-50
2021/12/22 08:08:55;;;;;;;34.53;13.10;;;-4.60;1.00;;;;;;4949210;29;20198;-50
2021/12/22 08:11:21;;;;;;;31.23;13.20;;;-4.60;1.00;;;;;;4950722;29;20441;-50
2021/12/22 08:13:46;;;;;;;39.00;13.10;;;-4.60;1.00;;;;;;4954312;29;20209;-50
2021/12/22 08:16:12;;;;;;;33.50;13.27;;;-4.60;1.00;;;;;;4954071;29;20252;-51
2021/12/22 08:18:38;;;;;;;36.10;12.23;;;-4.50;1.00;;;;;;4953310;29;20197;-50
2021/12/22 08:21:03;;;;;;;34.43;13.50;;;-4.50;1.00;;;;;;4953666;29;20228;-50
2021/12/22 08:23:29;;;;;;;32.53;12.73;;;-4.50;1.00;;;;;;4953403;29;20214;-50
2021/12/22 08:25:55;;;;;;;31.80;12.80;;;-4.60;1.00;;;;;;4953880;29;20285;-50
2021/12/22 08:28:20;;;;;;;42.90;14.37;;;-4.50;99.90;;;;;;4953380;29;20245;-50
2021/12/22 08:30:46;;;;;;;40.00;14.87;;;-4.40;99.90;;;;;;4953582;29;20520;-49
2021/12/22 08:33:24;;;;;;;39.73;12.77;;;-4.40;77.10;;;;;;4953334;28;20209;-50
2021/12/22 08:38:52;;;;;;;33.60;13.30;;;-4.30;84.80;;;;;;4951601;29;20470;-50
2021/12/22 08:41:19;;;;;;;37.20;14.47;;;-4.20;99.90;;;;;;4949080;29;20468;-50
2021/12/22 08:43:45;;;;;;;44.17;15.70;;;-4.30;44.40;;;;;;4953098;29;20449;-49
2021/12/22 08:46:10;;;;;;;44.40;17.00;;;-4.20;99.90;;;;;;4953026;29;20867;-50
2021/12/22 08:48:36;;;;;;;40.87;14.17;;;-4.10;99.90;;;;;;4952206;28;20260;-50
2021/12/22 08:51:02;;;;;;;46.00;16.20;;;-4.10;99.90;;;;;;4952572;28;20241;-50
2021/12/22 08:53:27;;;;;;;39.93;14.67;;;-4.10;99.90;;;;;;4953395;29;20205;-50
2021/12/22 08:55:53;;;;;;;39.43;14.70;;;-4.10;99.90;;;;;;4949210;29;20213;-50
2021/12/22 08:58:19;;;;;;;38.40;15.40;;;-4.10;1.00;;;;;;4952472;29;20217;-50
2021/12/22 09:00:44;;;;;;;43.10;15.17;;;-4.00;1.00;;;;;;4953396;29;20185;-51
2021/12/22 09:03:10;;;;;;;43.73;15.13;;;-4.10;99.90;;;;;;4953131;29;20530;-50
2021/12/22 09:05:35;;;;;;;49.40;16.10;;;-4.10;1.00;;;;;;4951113;29;20656;-51
2021/12/22 09:08:01;;;;;;;47.70;16.57;;;-4.00;1.00;;;;;;4952737;29;20209;-51
2021/12/22 09:10:27;;;;;;;46.17;19.03;;;-3.90;66.30;;;;;;4953796;29;20296;-50
2021/12/22 09:12:52;;;;;;;50.53;18.00;;;-3.80;1.00;;;;;;4951382;29;20285;-50
2021/12/22 09:15:19;;;;;;;51.93;16.60;;;-3.80;1.00;;;;;;4949434;29;20201;-50
2021/12/22 09:17:45;;;;;;;43.17;16.23;;;-3.70;99.90;;;;;;4953372;29;20264;-50
2021/12/22 09:20:11;;;;;;;48.40;18.20;;;-3.60;99.90;;;;;;4934545;29;20607;-50
2021/12/22 09:22:36;;;;;;;42.27;16.97;;;-3.60;99.90;;;;;;4953094;29;20536;-50
2021/12/22 09:25:03;;;;;;;48.47;17.63;;;-3.60;99.90;;;;;;4950142;29;20453;-50
2021/12/22 09:27:29;;;;;;;51.40;16.70;;;-3.60;1.00;;;;;;4951664;29;20194;-50
2021/12/22 09:29:54;;;;;;;47.63;16.90;;;-3.50;1.00;;;;;;4949268;29;20459;-50
2021/12/22 09:32:21;;;;;;;56.07;18.27;;;-3.40;1.00;;;;;;4951690;29;20212;-50
2021/12/22 09:34:49;;;;;;;43.40;16.50;;;-3.30;99.90;;;;;;4952029;28;20225;-50
2021/12/22 09:37:16;;;;;;;43.43;16.70;;;-3.30;99.90;;;;;;4945915;29;20878;-51
2021/12/22 09:39:41;;;;;;;49.33;17.17;;;-3.30;99.90;;;;;;4952155;29;20813;-50
2021/12/22 09:42:08;;;;;;;54.93;18.70;;;-3.10;1.00;;;;;;4948892;29;20473;-51
2021/12/22 09:44:42;;;;;;;61.13;18.30;;;-3.00;99.90;;;;;;4951862;29;20205;-58
2021/12/22 09:47:08;;;;;;;51.00;18.13;;;-2.90;99.90;;;;;;4951959;29;20520;-51
2021/12/22 09:52:19;;;;;;;56.10;18.60;;;-2.70;1.00;;;;;;4951455;29;21193;-51
2021/12/22 09:54:50;;;;;;;58.67;18.10;;;-2.70;1.00;;;;;;4950252;29;20456;-51
2021/12/22 09:57:17;;;;;;;52.63;17.80;;;-2.50;1.00;;;;;;4951353;29;20433;-51
2021/12/22 09:59:45;;;;;;;46.83;17.23;;;-2.50;81.00;;;;;;4952236;28;20432;-51
2021/12/22 10:02:11;;;;;;;58.90;18.87;;;-2.40;99.90;;;;;;4954999;29;20476;-50
2021/12/22 10:04:36;;;;;;;58.37;19.37;;;-2.30;99.90;;;;;;4954876;29;20758;-51
2021/12/22 10:07:02;;;;;;;45.80;17.30;;;-2.20;1.00;;;;;;4953869;29;20448;-51
2021/12/22 10:09:30;;;;;;;52.50;19.93;;;-2.20;1.00;;;;;;4956966;29;20565;-49
2021/12/22 10:11:56;;;;;;;52.40;18.23;;;-2.10;1.00;;;;;;4954632;29;20340;-51
2021/12/22 10:14:26;;;;;;;48.03;18.73;;;-2.10;1.00;;;;;;4956480;29;20426;-50
2021/12/22 10:16:54;;;;;;;51.97;19.07;;;-1.90;99.90;;;;;;4955344;29;20205;-50
2021/12/22 10:19:23;;;;;;;48.60;19.00;;;-1.80;99.90;;;;;;4951648;29;20804;-50
2021/12/22 10:22:01;;;;;;;53.47;18.27;;;-1.70;1.00;;;;;;4952254;29;20637;-50
2021/12/22 10:24:39;;;;;;;39.53;15.90;;;-1.60;1.00;;;;;;4952542;29;20448;-50
2021/12/22 10:27:10;;;;;;;33.70;14.90;;;-1.50;99.90;;;;;;4955882;29;20433;-49
2021/12/22 10:29:36;;;;;;;37.13;14.90;;;-1.60;99.90;;;;;;4955644;29;20569;-51
2021/12/22 10:32:10;;;;;;;29.77;12.90;;;-1.70;99.90;;;;;;4959766;28;20962;-50
2021/12/22 10:34:51;;;;;;;28.40;12.70;;;-1.70;99.90;;;;;;4956120;29;20197;-50
2021/12/22 10:37:40;;;;;;;36.60;13.77;;;-1.70;99.90;;;;;;4927336;29;20445;-49
2021/12/22 10:40:29;;;;;;;34.23;13.37;;;-1.60;99.90;;;;;;4943689;29;20501;-50
2021/12/22 10:42:55;;;;;;;32.60;12.97;;;-1.60;93.70;;;;;;4943133;29;20479;-51
2021/12/22 10:45:23;;;;;;;33.60;13.73;;;-1.60;99.90;;;;;;4943511;29;20858;-51
2021/12/22 10:50:36;;;;;;;29.87;14.20;;;-1.70;99.90;;;;;;4944973;29;20491;-50
2021/12/22 10:53:03;;;;;;;34.67;14.07;;;-1.70;99.90;;;;;;4942593;29;20584;-50
2021/12/22 10:55:47;;;;;;;34.40;13.93;;;-1.80;99.90;;;;;;4943884;29;20456;-50
2021/12/22 10:58:24;;;;;;;39.90;16.07;;;-1.90;99.90;;;;;;4940037;29;20457;-49
2021/12/22 11:01:11;;;;;;;36.67;15.50;;;-1.90;1.00;;;;;;4943218;29;20449;-50
2021/12/22 11:03:49;;;;;;;31.33;13.10;;;-1.90;1.00;;;;;;4944239;29;20935;-50
2021/12/22 11:06:28;;;;;;;41.23;14.87;;;-1.90;1.00;;;;;;4941993;29;20434;-50
2021/12/22 11:09:14;;;;;;;36.87;13.67;;;-2.00;1.00;;;;;;4945093;28;20544;-50
2021/12/22 11:11:55;;;;;;;39.27;14.10;;;-2.00;1.00;;;;;;4941171;29;20441;-50
2021/12/22 11:14:41;;;;;;;37.13;13.77;;;-2.00;99.90;;;;;;4941167;29;20456;-50
2021/12/22 11:17:11;;;;;;;33.60;13.13;;;-2.00;99.90;;;;;;4943076;29;20458;-50
2021/12/22 11:19:47;;;;;;;30.90;12.60;;;-2.00;99.90;;;;;;4952347;28;20453;-50
2021/12/22 11:22:14;;;;;;;30.20;11.83;;;-2.00;99.90;;;;;;4944209;29;20509;-50
2021/12/22 11:24:50;;;;;;;31.10;12.97;;;-1.90;1.00;;;;;;4942532;29;20456;-51
2021/12/22 11:27:26;;;;;;;30.53;12.77;;;-1.90;99.90;;;;;;4942444;29;20445;-50
2021/12/22 11:29:55;;;;;;;33.93;13.03;;;-2.00;99.90;;;;;;4945778;29;20981;-50
2021/12/22 11:32:22;;;;;;;32.63;13.17;;;-2.20;1.00;;;;;;4941832;29;20449;-50
2021/12/22 11:34:50;;;;;;;40.43;15.10;;;-2.20;26.20;;;;;;4943376;29;20445;-50
2021/12/22 11:37:17;;;;;;;31.37;13.70;;;-2.20;99.90;;;;;;4942895;29;20852;-50
2021/12/22 11:39:44;;;;;;;49.33;15.90;;;-2.20;99.90;;;;;;4943131;29;20430;-50
2021/12/22 11:42:12;;;;;;;40.60;15.80;;;-2.20;1.00;;;;;;4943142;29;20480;-50
2021/12/22 11:44:39;;;;;;;44.43;15.20;;;-2.20;99.90;;;;;;4942416;28;20446;-50
2021/12/22 11:47:10;;;;;;;34.60;13.30;;;-2.20;1.00;;;;;;4942141;29;20552;-50
2021/12/22 11:50:08;;;;;;;34.97;14.87;;;-2.10;1.00;;;;;;4925783;29;20477;-50
2021/12/22 11:52:36;;;;;;;37.33;14.63;;;-2.10;12.10;;;;;;4920761;29;20956;-50
2021/12/22 11:55:18;;;;;;;41.47;14.80;;;-2.00;99.90;;;;;;4923218;29;20475;-50
2021/12/22 11:57:47;;;;;;;36.30;14.10;;;-1.90;99.90;;;;;;4922525;29;20474;-50
2021/12/22 12:00:23;;;;;;;42.40;15.87;;;-1.90;1.00;;;;;;4924031;29;20522;-51
2021/12/22 12:02:49;;;;;;;42.50;15.70;;;-1.90;1.00;;;;;;4922761;29;20845;-50
2021/12/22 12:05:22;;;;;;;39.27;16.37;;;-1.80;99.90;;;;;;4923239;29;20458;-50
2021/12/22 12:08:14;;;;;;;36.70;15.57;;;-1.80;99.90;;;;;;4922641;29;20903;-50
2021/12/22 12:10:42;;;;;;;40.33;16.73;;;-1.70;1.00;;;;;;4922760;29;20930;-50
2021/12/22 12:13:36;;;;;;;41.13;16.67;;;-1.60;99.90;;;;;;4921860;29;20442;-50
2021/12/22 12:21:57;;;;;;;42.10;15.83;;;-1.40;1.00;;;;;;4922588;29;21035;-50
2021/12/22 12:24:42;;;;;;;42.90;17.27;;;-1.30;1.00;;;;;;4921225;29;20875;-50
2021/12/22 12:27:40;;;;;;;38.10;15.37;;;-1.30;1.00;;;;;;4921954;29;20448;-50
2021/12/22 12:30:40;;;;;;;40.17;16.37;;;-1.50;99.90;;;;;;4921793;29;20933;-50
2021/12/22 12:33:09;;;;;;;40.13;16.00;;;-1.50;1.00;;;;;;4922023;29;20557;-50
2021/12/22 12:35:37;;;;;;;46.20;16.10;;;-1.50;1.00;;;;;;4923885;29;20797;-51
2021/12/22 12:38:40;;;;;;;38.37;16.50;;;-1.40;1.00;;;;;;4922213;29;20516;-50
2021/12/22 12:41:11;;;;;;;35.03;16.07;;;-1.50;1.00;;;;;;4914983;29;20442;-50
2021/12/22 12:43:43;;;;;;;39.37;16.53;;;-1.40;1.00;;;;;;4921896;29;20430;-50
2021/12/22 12:46:34;;;;;;;40.20;16.27;;;-1.40;1.00;;;;;;4921318;29;20529;-50
2021/12/22 12:49:03;;;;;;;48.40;17.20;;;-1.40;46.90;;;;;;4921811;29;20447;-50
2021/12/22 12:51:36;;;;;;;38.60;15.80;;;-1.40;1.00;;;;;;4935245;29;20520;-50
2021/12/22 12:54:17;;;;;;;43.33;18.30;;;-1.40;1.00;;;;;;4941951;29;20441;-50
2021/12/22 12:56:50;;;;;;;45.40;19.27;;;-1.40;1.00;;;;;;4940182;29;20441;-50
2021/12/22 12:59:18;;;;;;;42.30;18.23;;;-1.40;1.00;;;;;;4939976;29;20437;-51
2021/12/22 13:01:46;;;;;;;51.77;17.57;;;-1.40;1.00;;;;;;4939607;29;20545;-49
2021/12/22 13:04:30;;;;;;;39.23;17.30;;;-1.40;1.00;;;;;;4939771;29;20943;-50
2021/12/22 13:07:04;;;;;;;48.10;19.17;;;-1.30;2.10;;;;;;4939983;29;20936;-50